createdAt,value
2019-03-17T00:00:50.364Z,1.93
2019-03-17T00:03:26.971Z,2.30
2019-03-17T00:06:24.315Z,1.80
2019-03-17T00:08:58.715Z,2.40
2019-03-17T00:11:49.797Z,1.70
2019-03-17T00:14:31.593Z,2.00
2019-03-17T00:17:15.044Z,1.70
2019-03-17T00:19:54.363Z,1.83
2019-03-17T00:22:33.097Z,1.73
2019-03-17T00:25:31.924Z,2.50
2019-03-17T00:28:13.157Z,2.20
2019-03-17T00:30:41.935Z,1.93
2019-03-17T00:33:14.466Z,2.13
2019-03-17T00:39:18.099Z,2.17
2019-03-17T00:42:00.989Z,2.10
2019-03-17T00:44:41.559Z,1.80
2019-03-17T00:47:21.291Z,2.20
2019-03-17T00:50:02.330Z,2.40
2019-03-17T00:55:55.395Z,2.40
2019-03-17T00:58:45.674Z,2.73
2019-03-17T01:01:35.142Z,2.00
2019-03-17T01:04:01.773Z,2.03
2019-03-17T01:06:43.006Z,2.47
2019-03-17T01:09:34.678Z,2.23
2019-03-17T01:12:12.539Z,2.60
2019-03-17T01:15:15.455Z,2.70
2019-03-17T01:18:19.146Z,2.00
2019-03-17T01:21:24.179Z,2.27
2019-03-17T01:24:36.572Z,2.60
2019-03-17T01:27:37.967Z,2.90
2019-03-17T01:30:42.819Z,2.33
2019-03-17T01:33:51.187Z,3.33
2019-03-17T01:36:40.715Z,2.73
2019-03-17T01:42:57.387Z,2.73
2019-03-17T01:45:35.517Z,2.57
2019-03-17T01:48:20.809Z,2.27
2019-03-17T01:50:53.951Z,2.80
2019-03-17T01:53:30.566Z,2.90
2019-03-17T01:56:20.874Z,3.10
2019-03-17T01:59:08.866Z,2.73
2019-03-17T02:01:45.013Z,2.63
2019-03-17T02:04:32.133Z,2.53
2019-03-17T02:07:30.362Z,2.83
2019-03-17T02:10:13.715Z,2.50
2019-03-17T02:18:57.974Z,2.63
2019-03-17T02:21:36.241Z,2.80
2019-03-17T02:24:14.337Z,2.83
2019-03-17T02:27:12.269Z,2.83
2019-03-17T02:29:55.823Z,2.40
2019-03-17T02:32:37.280Z,3.13
2019-03-17T02:35:39.629Z,2.93
2019-03-17T02:38:15.050Z,3.10
2019-03-17T02:40:55.560Z,3.10
2019-03-17T02:44:03.349Z,3.27
2019-03-17T02:46:39.618Z,3.00
2019-03-17T02:49:16.425Z,3.03
2019-03-17T02:51:54.675Z,2.83
2019-03-17T02:54:49.786Z,2.70
2019-03-17T02:57:25.059Z,2.83
2019-03-17T03:00:49.124Z,2.97
2019-03-17T03:17:54.718Z,2.90
2019-03-17T03:21:13.299Z,2.90
2019-03-17T03:23:52.205Z,2.90
2019-03-17T03:26:31.631Z,3.30
2019-03-17T03:29:00.827Z,3.10
2019-03-17T03:31:29.334Z,2.80
2019-03-17T03:33:57.076Z,3.00
2019-03-17T03:36:25.180Z,3.00
2019-03-17T03:39:11.200Z,3.30
2019-03-17T03:41:46.302Z,3.20
2019-03-17T03:44:41.940Z,2.97
2019-03-17T03:51:02.562Z,3.20
2019-03-17T03:53:48.995Z,3.53
2019-03-17T03:56:24.914Z,3.50
2019-03-17T03:59:08.900Z,3.37
2019-03-17T04:01:54.672Z,3.27
2019-03-17T04:04:43.593Z,3.23
2019-03-17T04:07:17.193Z,3.53
2019-03-17T04:09:51.128Z,3.47
2019-03-17T04:12:20.888Z,3.67
2019-03-17T04:14:51.701Z,3.33
2019-03-17T04:17:19.376Z,3.50
2019-03-17T04:19:46.996Z,3.30
2019-03-17T04:22:16.236Z,3.10
2019-03-17T04:24:43.800Z,3.40
2019-03-17T04:27:11.398Z,3.40
2019-03-17T04:29:39.032Z,3.60
2019-03-17T04:32:06.564Z,3.47
2019-03-17T04:34:34.173Z,3.30
2019-03-17T04:37:01.816Z,3.80
2019-03-17T04:39:29.905Z,3.50
2019-03-17T04:41:57.654Z,3.50
2019-03-17T04:44:25.215Z,3.53
2019-03-17T04:46:52.929Z,4.00
2019-03-17T04:49:20.526Z,4.03
2019-03-17T04:51:48.659Z,3.57
2019-03-17T04:54:16.306Z,3.70
2019-03-17T04:56:43.913Z,2.80
2019-03-17T04:59:11.503Z,3.00
2019-03-17T05:01:39.186Z,2.47
2019-03-17T05:04:07.473Z,1.93
2019-03-17T05:06:35.012Z,1.83
2019-03-17T05:09:03.799Z,1.80
2019-03-17T05:11:31.372Z,1.93
2019-03-17T05:13:58.932Z,1.53
2019-03-17T05:16:26.870Z,1.57
2019-03-17T05:18:54.468Z,1.73
2019-03-17T05:21:22.611Z,1.57
2019-03-17T05:23:50.186Z,1.73
2019-03-17T05:26:17.807Z,1.87
2019-03-17T05:28:45.797Z,1.80
2019-03-17T05:31:13.370Z,2.00
2019-03-17T05:33:40.918Z,2.10
2019-03-17T05:36:08.623Z,1.67
2019-03-17T05:38:36.168Z,1.70
2019-03-17T05:41:03.775Z,1.60
2019-03-17T05:43:31.350Z,1.53
2019-03-17T05:45:58.936Z,1.27
2019-03-17T05:48:26.883Z,1.43
2019-03-17T05:50:54.761Z,1.20
2019-03-17T05:53:22.336Z,1.20
2019-03-17T05:55:49.968Z,1.03
2019-03-17T05:58:17.613Z,1.13
2019-03-17T06:00:45.171Z,1.27
2019-03-17T06:03:12.974Z,1.07
2019-03-17T06:05:40.654Z,0.90
2019-03-17T06:08:08.289Z,0.90
2019-03-17T06:10:35.986Z,0.93
2019-03-17T06:13:06.129Z,0.80
2019-03-17T06:15:50.121Z,0.90
2019-03-17T06:18:34.865Z,0.80
2019-03-17T06:21:00.719Z,0.90
2019-03-17T06:24:07.533Z,0.90
2019-03-17T06:26:36.651Z,0.90
2019-03-17T06:29:05.639Z,1.13
2019-03-17T06:31:52.891Z,0.90
2019-03-17T06:34:24.190Z,0.90
2019-03-17T06:36:51.801Z,1.20
2019-03-17T06:39:19.713Z,0.80
2019-03-17T06:41:47.538Z,1.00
2019-03-17T06:44:15.140Z,1.20
2019-03-17T06:46:45.434Z,1.00
2019-03-17T06:49:14.893Z,1.00
2019-03-17T06:51:42.676Z,1.40
2019-03-17T06:54:11.586Z,1.20
2019-03-17T06:56:39.491Z,0.90
2019-03-17T06:59:07.019Z,1.20
2019-03-17T07:01:35.275Z,1.20
2019-03-17T07:04:03.439Z,1.10
2019-03-17T07:06:31.521Z,1.10
2019-03-17T07:08:59.145Z,1.13
2019-03-17T07:11:30.755Z,1.20
2019-03-17T07:13:58.505Z,1.00
2019-03-17T07:16:27.462Z,1.83
2019-03-17T07:18:55.364Z,1.23
2019-03-17T07:21:24.107Z,1.17
2019-03-17T07:23:54.609Z,1.40
2019-03-17T07:26:24.230Z,1.30
2019-03-17T07:28:55.271Z,1.30
2019-03-17T07:31:23.005Z,1.13
2019-03-17T07:33:50.593Z,1.43
2019-03-17T07:36:18.274Z,1.30
2019-03-17T07:38:47.689Z,1.57
2019-03-17T07:42:03.933Z,1.43
2019-03-17T07:44:31.614Z,1.30
2019-03-17T07:47:09.021Z,1.50
2019-03-17T07:49:36.571Z,1.77
2019-03-17T07:52:19.880Z,1.47
2019-03-17T07:54:47.411Z,1.23
2019-03-17T07:57:14.993Z,1.10
2019-03-17T07:59:53.597Z,1.23
2019-03-17T08:02:24.322Z,1.50
2019-03-17T08:04:53.052Z,1.23
2019-03-17T08:07:20.718Z,1.20
2019-03-17T08:09:48.306Z,2.03
2019-03-17T08:12:15.965Z,1.90
2019-03-17T08:14:43.540Z,2.23
2019-03-17T08:17:11.134Z,1.80
2019-03-17T08:19:38.728Z,1.73
2019-03-17T08:22:08.572Z,1.37
2019-03-17T08:24:36.138Z,1.40
2019-03-17T08:27:03.664Z,1.03
2019-03-17T08:29:31.248Z,1.13
2019-03-17T08:32:01.372Z,1.40
2019-03-17T08:34:28.922Z,1.27
2019-03-17T08:36:56.404Z,1.13
2019-03-17T08:39:30.021Z,1.07
2019-03-17T08:42:00.243Z,1.30
2019-03-17T08:44:28.935Z,1.10
2019-03-17T08:46:56.493Z,1.20
2019-03-17T08:49:24.088Z,1.43
2019-03-17T08:51:51.662Z,1.50
2019-03-17T08:54:19.292Z,1.27
2019-03-17T08:56:46.918Z,1.57
2019-03-17T08:59:14.983Z,1.20
2019-03-17T09:01:43.147Z,1.00
2019-03-17T09:04:11.058Z,1.27
2019-03-17T09:06:38.642Z,1.00
2019-03-17T09:09:07.709Z,0.90
2019-03-17T09:11:36.175Z,0.90
2019-03-17T09:14:05.428Z,1.30
2019-03-17T09:16:32.929Z,1.37
2019-03-17T09:19:00.554Z,1.13
2019-03-17T09:21:31.288Z,1.20
2019-03-17T09:23:59.150Z,1.20
2019-03-17T09:26:27.964Z,1.20
2019-03-17T09:28:59.556Z,1.57
2019-03-17T09:31:27.156Z,1.57
2019-03-17T09:33:57.587Z,1.67
2019-03-17T09:36:25.447Z,1.60
2019-03-17T09:38:53.035Z,1.40
2019-03-17T09:41:23.652Z,1.60
2019-03-17T09:43:51.209Z,2.00
2019-03-17T09:46:19.578Z,2.00
2019-03-17T09:49:09.817Z,1.97
2019-03-17T09:51:39.903Z,1.70
2019-03-17T09:54:19.389Z,2.00
2019-03-17T09:56:47.019Z,1.83
2019-03-17T09:59:17.525Z,1.50
2019-03-17T10:01:45.124Z,1.73
2019-03-17T10:04:18.317Z,1.80
2019-03-17T10:06:45.916Z,1.70
2019-03-17T10:09:13.508Z,1.70
2019-03-17T10:11:41.175Z,1.60
2019-03-17T10:14:13.526Z,1.50
2019-03-17T10:16:41.108Z,1.40
2019-03-17T10:19:09.819Z,1.30
2019-03-17T10:21:37.417Z,1.80
2019-03-17T10:24:06.137Z,1.50
2019-03-17T10:26:37.420Z,1.40
2019-03-17T10:29:07.296Z,1.67
2019-03-17T10:31:35.411Z,1.93
2019-03-17T10:34:07.422Z,2.07
2019-03-17T10:36:34.947Z,2.00
2019-03-17T10:39:21.930Z,1.73
2019-03-17T10:41:55.569Z,1.90
2019-03-17T10:44:24.497Z,2.10
2019-03-17T10:46:53.251Z,2.23
2019-03-17T10:49:21.079Z,2.20
2019-03-17T10:51:48.668Z,2.10
2019-03-17T10:54:18.454Z,2.23
2019-03-17T10:56:46.071Z,2.30
2019-03-17T10:59:14.361Z,2.00
2019-03-17T11:01:41.859Z,2.50
2019-03-17T11:04:09.516Z,2.20
2019-03-17T11:06:38.661Z,2.40
2019-03-17T11:09:06.331Z,2.43
2019-03-17T11:11:36.234Z,1.77
2019-03-17T11:14:03.871Z,2.00
2019-03-17T11:16:41.557Z,2.33
2019-03-17T11:19:16.740Z,2.30
2019-03-17T11:21:44.397Z,2.07
2019-03-17T11:24:12.120Z,1.40
2019-03-17T11:26:44.534Z,1.50
2019-03-17T11:29:14.175Z,1.50
2019-03-17T11:31:42.880Z,1.50
2019-03-17T11:34:11.501Z,1.23
2019-03-17T11:36:41.680Z,1.20
2019-03-17T11:39:09.278Z,1.10
2019-03-17T11:41:37.558Z,1.00
2019-03-17T11:44:07.227Z,0.80
2019-03-17T11:46:34.801Z,1.00
2019-03-17T11:49:02.324Z,0.90
2019-03-17T11:51:29.864Z,1.33
2019-03-17T11:53:57.471Z,0.87
2019-03-17T11:56:27.032Z,1.10
2019-03-17T11:58:54.599Z,0.90
2019-03-17T12:01:45.877Z,1.00
2019-03-17T12:04:17.163Z,0.97
2019-03-17T12:11:07.070Z,1.00
2019-03-17T12:13:37.666Z,1.00
2019-03-17T12:16:15.498Z,1.10
2019-03-17T12:18:53.782Z,1.20
2019-03-17T12:21:21.378Z,1.17
2019-03-17T12:23:49.640Z,1.27
2019-03-17T12:26:17.542Z,1.30
2019-03-17T12:28:45.215Z,1.27
2019-03-17T12:31:12.855Z,1.30
2019-03-17T12:33:40.703Z,1.33
2019-03-17T12:36:10.564Z,1.00
2019-03-17T12:38:38.064Z,1.50
2019-03-17T12:41:05.652Z,1.33
2019-03-17T12:43:33.850Z,1.53
2019-03-17T12:46:02.026Z,1.40
2019-03-17T12:48:29.623Z,1.30
2019-03-17T12:50:57.519Z,1.60
2019-03-17T12:53:25.630Z,1.47
2019-03-17T12:55:53.786Z,1.10
2019-03-17T12:58:21.463Z,1.00
2019-03-17T13:00:51.596Z,1.20
2019-03-17T13:03:19.837Z,1.10
2019-03-17T13:05:47.724Z,0.80
2019-03-17T13:08:15.326Z,0.87
2019-03-17T13:10:42.996Z,0.90
2019-03-17T13:13:12.796Z,0.90
2019-03-17T13:15:40.982Z,0.93
2019-03-17T13:20:39.028Z,0.90
2019-03-17T13:23:07.330Z,0.87
2019-03-17T13:25:35.059Z,1.20
2019-03-17T13:28:03.056Z,1.20
2019-03-17T13:30:50.769Z,1.30
2019-03-17T13:33:29.607Z,1.37
2019-03-17T13:36:03.955Z,1.03
2019-03-17T13:38:31.829Z,1.27
2019-03-17T13:40:59.560Z,1.10
2019-03-17T13:43:27.166Z,1.90
2019-03-17T13:45:58.814Z,1.70
2019-03-17T13:48:26.494Z,1.20
2019-03-17T13:50:54.171Z,1.03
2019-03-17T13:53:23.082Z,1.03
2019-03-17T13:55:51.151Z,1.00
2019-03-17T13:58:18.833Z,1.30
2019-03-17T14:00:46.603Z,1.10
2019-03-17T14:03:14.382Z,1.30
2019-03-17T14:05:42.095Z,1.60
2019-03-17T14:08:09.858Z,1.33
2019-03-17T14:10:41.198Z,1.57
2019-03-17T14:13:07.002Z,1.60
2019-03-17T14:15:34.765Z,1.60
2019-03-17T14:18:03.781Z,1.50
2019-03-17T14:20:31.459Z,1.60
2019-03-17T14:22:59.281Z,1.80
2019-03-17T14:25:27.170Z,1.33
2019-03-17T14:27:56.488Z,1.30
2019-03-17T14:30:24.189Z,1.50
2019-03-17T14:32:51.883Z,1.37
2019-03-17T14:35:22.456Z,1.43
2019-03-17T14:37:50.218Z,1.33
2019-03-17T14:40:17.843Z,0.90
2019-03-17T14:42:45.712Z,1.20
2019-03-17T14:45:13.950Z,1.20
2019-03-17T14:47:41.673Z,0.90
2019-03-17T14:50:11.908Z,0.90
2019-03-17T14:52:39.618Z,0.80
2019-03-17T14:55:07.439Z,0.80
2019-03-17T14:57:36.713Z,0.70
2019-03-17T15:00:05.914Z,0.97
2019-03-17T15:02:33.888Z,1.23
2019-03-17T15:05:06.396Z,0.90
2019-03-17T15:07:36.870Z,1.00
2019-03-17T15:10:05.300Z,0.80
2019-03-17T15:12:32.992Z,1.17
2019-03-17T15:15:00.671Z,1.10
2019-03-17T15:17:28.534Z,1.00
2019-03-17T15:19:56.200Z,1.20
2019-03-17T15:22:23.809Z,1.10
2019-03-17T15:24:51.536Z,1.03
2019-03-17T15:27:19.723Z,1.20
2019-03-17T15:29:47.401Z,1.00
2019-03-17T15:32:15.444Z,0.60
2019-03-17T15:34:43.269Z,0.60
2019-03-17T15:37:11.674Z,0.70
2019-03-17T15:39:39.692Z,0.40
2019-03-17T15:42:11.457Z,0.50
2019-03-17T15:44:41.985Z,0.40
2019-03-17T15:47:10.100Z,0.50
2019-03-17T15:49:38.018Z,0.60
2019-03-17T15:52:06.064Z,0.60
2019-03-17T15:54:33.846Z,0.60
2019-03-17T15:57:01.852Z,0.60
2019-03-17T15:59:32.058Z,0.70
2019-03-17T16:02:00.422Z,0.50
2019-03-17T16:04:33.008Z,0.70
2019-03-17T16:07:01.221Z,0.60
2019-03-17T16:09:29.154Z,0.40
2019-03-17T16:12:04.678Z,0.53
2019-03-17T16:14:39.058Z,0.47
2019-03-17T16:17:37.550Z,0.60
2019-03-17T16:20:11.931Z,0.47
2019-03-17T16:22:41.282Z,0.40
2019-03-17T16:25:11.000Z,0.80
2019-03-17T16:27:39.115Z,0.87
2019-03-17T16:30:11.138Z,0.90
2019-03-17T16:32:39.254Z,0.60
2019-03-17T16:35:17.026Z,0.60
2019-03-17T16:37:52.735Z,0.77
2019-03-17T16:40:30.822Z,0.60
2019-03-17T16:43:06.336Z,0.60
2019-03-17T16:45:36.760Z,0.90
2019-03-17T16:48:08.601Z,0.80
2019-03-17T16:50:42.154Z,0.77
2019-03-17T16:53:13.825Z,1.10
2019-03-17T16:55:47.515Z,1.00
2019-03-17T16:58:18.145Z,0.70
2019-03-17T17:00:53.307Z,0.80
2019-03-17T17:03:26.082Z,0.70
2019-03-17T17:05:59.736Z,1.13
2019-03-17T17:08:35.037Z,1.03
2019-03-17T17:11:09.771Z,1.10
2019-03-17T17:13:42.089Z,1.00
2019-03-17T17:16:17.438Z,0.90
2019-03-17T17:18:54.235Z,1.23
2019-03-17T17:21:33.746Z,1.10
2019-03-17T17:24:05.154Z,1.23
2019-03-17T17:26:41.285Z,1.10
2019-03-17T17:29:16.798Z,0.80
2019-03-17T17:31:54.799Z,1.10
2019-03-17T17:34:28.730Z,1.10
2019-03-17T17:37:02.586Z,0.83
2019-03-17T17:39:39.923Z,1.00
2019-03-17T17:42:18.262Z,0.90
2019-03-17T17:44:52.381Z,2.07
2019-03-17T17:47:26.863Z,1.17
2019-03-17T17:50:01.711Z,1.20
2019-03-17T17:52:47.884Z,1.20
2019-03-17T17:55:27.698Z,1.03
2019-03-17T17:58:08.923Z,1.10
2019-03-17T18:00:46.360Z,1.10
2019-03-17T18:03:28.523Z,1.20
2019-03-17T18:06:07.108Z,1.20
2019-03-17T18:08:35.930Z,1.40
2019-03-17T18:11:03.859Z,1.10
2019-03-17T18:13:32.644Z,1.20
2019-03-17T18:16:00.646Z,1.57
2019-03-17T18:18:29.171Z,1.10
2019-03-17T18:20:57.374Z,1.00
2019-03-17T18:23:26.586Z,1.17
2019-03-17T18:25:54.322Z,1.10
2019-03-17T18:28:22.520Z,1.07
2019-03-17T18:30:51.377Z,1.17
2019-03-17T18:33:22.088Z,1.30
2019-03-17T18:35:53.209Z,1.30
2019-03-17T18:38:21.803Z,1.63
2019-03-17T18:40:53.155Z,1.60
2019-03-17T18:43:25.953Z,1.30
2019-03-17T18:46:37.076Z,1.90
2019-03-17T18:59:46.894Z,2.83
2019-03-17T19:02:14.722Z,2.50
2019-03-17T19:04:42.646Z,2.20
2019-03-17T19:07:11.731Z,1.60
2019-03-17T19:09:42.392Z,1.53
2019-03-17T19:12:10.940Z,1.83
2019-03-17T19:14:39.410Z,1.20
2019-03-17T19:17:07.198Z,1.50
2019-03-17T19:19:35.405Z,1.27
2019-03-17T19:22:03.417Z,1.57
2019-03-17T19:24:31.255Z,2.20
2019-03-17T19:26:59.544Z,1.90
2019-03-17T19:29:27.860Z,2.10
2019-03-17T19:31:57.003Z,1.60
2019-03-17T19:34:24.774Z,1.60
2019-03-17T19:36:52.878Z,1.43
2019-03-17T19:39:20.642Z,1.90
2019-03-17T19:41:48.620Z,1.90
2019-03-17T19:44:17.651Z,2.13
2019-03-17T19:46:45.606Z,2.03
2019-03-17T19:49:13.434Z,1.50
2019-03-17T19:51:43.786Z,1.00
2019-03-17T19:54:11.950Z,1.50
2019-03-17T19:56:39.856Z,1.60
2019-03-17T19:59:07.765Z,1.10
2019-03-17T20:01:35.931Z,1.03
2019-03-17T20:04:03.715Z,1.17
2019-03-17T20:06:33.620Z,1.70
2019-03-17T20:09:01.654Z,1.33
2019-03-17T20:11:32.625Z,1.43
2019-03-17T20:14:04.795Z,1.43
2019-03-17T20:16:33.198Z,3.40
2019-03-17T20:19:45.805Z,1.80
2019-03-17T20:22:33.994Z,2.90
2019-03-17T20:25:01.982Z,1.63
2019-03-17T20:27:42.569Z,1.20
2019-03-17T20:30:37.021Z,1.17
2019-03-17T20:33:36.957Z,1.03
2019-03-17T20:40:00.684Z,1.10
2019-03-17T20:42:33.117Z,1.40
2019-03-17T20:45:09.572Z,1.50
2019-03-17T20:47:43.873Z,1.40
2019-03-17T20:50:31.520Z,1.33
2019-03-17T20:53:01.920Z,1.40
2019-03-17T20:55:34.087Z,1.50
2019-03-17T20:58:02.369Z,1.50
2019-03-17T21:00:38.199Z,1.40
2019-03-17T21:06:20.876Z,1.20
2019-03-17T21:08:48.928Z,1.40
2019-03-17T21:14:40.037Z,1.40
2019-03-17T21:17:08.401Z,1.40
2019-03-17T21:19:41.341Z,1.43
2019-03-17T21:22:12.320Z,1.57
2019-03-17T21:24:40.289Z,1.50
2019-03-17T21:27:51.293Z,1.37
2019-03-17T21:30:34.026Z,1.40
2019-03-17T21:33:05.652Z,1.60
2019-03-17T21:35:36.772Z,1.40
2019-03-17T21:38:19.270Z,1.80
2019-03-17T21:41:13.794Z,1.70
2019-03-17T21:44:14.601Z,1.40
2019-03-17T21:46:38.667Z,1.50
2019-03-17T21:49:10.976Z,1.60
2019-03-17T21:51:38.812Z,1.53
2019-03-17T21:54:07.034Z,1.37
2019-03-17T21:56:37.746Z,1.70
2019-03-17T21:59:15.894Z,1.63
2019-03-17T22:01:43.821Z,1.93
2019-03-17T22:04:11.788Z,1.50
2019-03-17T22:06:39.501Z,1.77
2019-03-17T22:09:25.131Z,1.63
2019-03-17T22:11:53.385Z,1.80
2019-03-17T22:14:22.037Z,2.13
2019-03-17T22:16:49.978Z,1.80
2019-03-17T22:19:18.025Z,1.80
2019-03-17T22:21:46.218Z,1.50
2019-03-17T22:24:14.119Z,2.00
2019-03-17T22:26:42.161Z,2.03
2019-03-17T22:29:09.995Z,1.60
2019-03-17T22:31:37.895Z,1.30
2019-03-17T22:34:08.130Z,1.90
2019-03-17T22:36:36.517Z,1.77
2019-03-17T22:39:06.122Z,1.90
2019-03-17T22:41:34.089Z,1.70
2019-03-17T22:44:04.225Z,1.53
2019-03-17T22:46:32.287Z,1.50
2019-03-17T22:49:00.674Z,1.40
2019-03-17T22:51:30.798Z,1.90
2019-03-17T22:53:59.346Z,1.80
2019-03-17T22:56:27.443Z,1.60
2019-03-17T22:58:55.383Z,1.50
2019-03-17T23:01:26.869Z,1.50
2019-03-17T23:03:55.157Z,1.50
2019-03-17T23:06:23.204Z,1.70
2019-03-17T23:08:51.427Z,1.80
2019-03-17T23:11:20.561Z,1.57
2019-03-17T23:13:51.078Z,1.93
2019-03-17T23:16:22.052Z,1.40
2019-03-17T23:18:50.315Z,1.60
2019-03-17T23:21:18.101Z,1.53
2019-03-17T23:23:47.947Z,1.60
2019-03-17T23:26:16.154Z,1.63
2019-03-17T23:28:47.023Z,1.53
2019-03-17T23:31:14.845Z,1.50
2019-03-17T23:33:43.070Z,1.63
2019-03-17T23:36:11.014Z,1.50
2019-03-17T23:38:38.626Z,1.63
2019-03-17T23:41:06.741Z,1.50
2019-03-17T23:43:34.600Z,1.80
2019-03-17T23:46:02.394Z,1.77
2019-03-17T23:48:30.099Z,1.87
2019-03-17T23:50:57.879Z,1.70
2019-03-17T23:53:25.881Z,1.70
2019-03-17T23:55:54.175Z,1.70
2019-03-17T23:58:21.897Z,1.93
